Time;durP1;ratioP1;P1;durP2;ratioP2;P2;SDS_P1;SDS_P2;PMS_P1;PMS_P2;Temp;Humidity;BMP_temperature;BMP_pressure;BME280_temperature;BME280_humidity;BME280_pressure;Samples;Min_cycle;Max_cycle;Signal;HPM_P1;HPM_P2
2023/06/07 00:01:15;;;;;;;2.67;2.10;;;;;;;;;;5034723;28;20108;-58
2023/06/07 00:03:41;;;;;;;5.68;2.22;;;;;;;;;;5034529;28;20029;-58
2023/06/07 00:06:09;;;;;;;7.60;2.40;;;;;;;;;;5034600;28;20158;-58
2023/06/07 00:08:35;;;;;;;4.97;2.22;;;;;;;;;;5034250;28;20029;-58
2023/06/07 00:11:01;;;;;;;5.70;2.35;;;;;;;;;;5034442;28;20052;-58
2023/06/07 00:13:27;;;;;;;10.73;2.58;;;;;;;;;;5034489;28;20112;-58
2023/06/07 00:15:52;;;;;;;2.33;2.03;;;;;;;;;;5035849;28;20113;-60
2023/06/07 00:18:21;;;;;;;5.60;2.17;;;;;;;;;;5035630;28;20030;-58
2023/06/07 00:20:49;;;;;;;3.88;2.28;;;;;;;;;;5034397;28;20030;-58
2023/06/07 00:23:15;;;;;;;11.57;2.30;;;;;;;;;;5044485;28;20094;-59
2023/06/07 00:25:42;;;;;;;5.78;2.13;;;;;;;;;;5054234;28;20043;-58
2023/06/07 00:28:07;;;;;;;2.95;2.00;;;;;;;;;;5054161;28;20567;-58
2023/06/07 00:30:33;;;;;;;3.88;2.08;;;;;;;;;;5054268;28;20104;-59
2023/06/07 00:32:58;;;;;;;5.30;2.30;;;;;;;;;;5054154;28;20025;-59
2023/06/07 00:35:24;;;;;;;3.72;2.00;;;;;;;;;;5054169;28;20025;-59
2023/06/07 00:37:49;;;;;;;1.90;1.70;;;;;;;;;;5054078;28;20071;-60
2023/06/07 00:40:15;;;;;;;4.35;2.00;;;;;;;;;;5051103;28;20029;-60
2023/06/07 00:42:42;;;;;;;4.28;1.90;;;;;;;;;;5034338;28;20029;-64
2023/06/07 00:45:08;;;;;;;3.65;2.13;;;;;;;;;;5047621;28;20025;-60
2023/06/07 00:47:37;;;;;;;5.82;2.20;;;;;;;;;;5040827;28;20021;-60
2023/06/07 00:50:04;;;;;;;6.50;2.10;;;;;;;;;;5042223;28;20431;-61
2023/06/07 00:52:30;;;;;;;2.90;1.80;;;;;;;;;;5044004;28;20037;-60
2023/06/07 00:54:58;;;;;;;4.55;1.92;;;;;;;;;;5043828;28;20056;-61
2023/06/07 00:57:23;;;;;;;2.92;1.90;;;;;;;;;;5044478;28;20013;-61
2023/06/07 00:59:49;;;;;;;2.45;1.65;;;;;;;;;;5041831;28;20029;-60
2023/06/07 01:02:15;;;;;;;4.00;1.77;;;;;;;;;;5042041;28;20070;-60
2023/06/07 01:04:42;;;;;;;4.40;2.10;;;;;;;;;;5031133;28;20480;-60
2023/06/07 01:07:08;;;;;;;2.60;1.70;;;;;;;;;;5031024;28;20022;-60
2023/06/07 01:09:35;;;;;;;3.20;2.00;;;;;;;;;;5031618;28;20088;-60
2023/06/07 01:12:03;;;;;;;1.77;1.67;;;;;;;;;;5033041;28;20182;-59
2023/06/07 01:14:30;;;;;;;6.47;2.50;;;;;;;;;;5033351;28;20372;-60
2023/06/07 01:16:56;;;;;;;5.43;2.05;;;;;;;;;;5033104;28;20036;-60
2023/06/07 01:19:27;;;;;;;2.10;1.90;;;;;;;;;;5033362;28;20053;-60
2023/06/07 01:22:06;;;;;;;;;;;;;;;;;;5033800;28;20029;-60
2023/06/07 01:24:42;;;;;;;5.28;2.35;;;;;;;;;;5033265;28;19940;-60
2023/06/07 01:27:08;;;;;;;3.50;2.00;;;;;;;;;;5033173;28;20519;-60
2023/06/07 01:29:33;;;;;;;5.03;2.15;;;;;;;;;;5033394;28;20128;-60
2023/06/07 01:32:05;;;;;;;3.50;1.90;;;;;;;;;;5033094;28;20464;-60
2023/06/07 01:34:32;;;;;;;2.28;1.92;;;;;;;;;;5033067;28;20034;-60
2023/06/07 01:36:59;;;;;;;2.85;2.25;;;;;;;;;;5032989;28;20056;-60
2023/06/07 01:39:26;;;;;;;2.00;1.80;;;;;;;;;;5032923;28;20108;-60
2023/06/07 01:41:52;;;;;;;2.45;2.10;;;;;;;;;;5032980;28;20424;-60
2023/06/07 01:44:19;;;;;;;2.38;2.00;;;;;;;;;;5032851;28;20096;-59
2023/06/07 01:46:46;;;;;;;3.70;1.88;;;;;;;;;;5033196;28;20025;-60
2023/06/07 01:49:12;;;;;;;4.57;2.15;;;;;;;;;;5032708;28;20057;-60
2023/06/07 01:51:38;;;;;;;2.13;1.90;;;;;;;;;;5032792;28;20026;-60
2023/06/07 01:54:05;;;;;;;2.83;2.03;;;;;;;;;;5032731;28;20022;-60
2023/06/07 01:56:39;;;;;;;2.22;1.80;;;;;;;;;;5032818;28;20480;-60
2023/06/07 01:59:41;;;;;;;2.92;2.30;;;;;;;;;;5032562;28;20056;-60
2023/06/07 02:02:10;;;;;;;2.75;2.10;;;;;;;;;;5032683;28;20025;-60
2023/06/07 02:04:46;;;;;;;3.42;1.92;;;;;;;;;;5032806;28;20064;-63
2023/06/07 02:07:17;;;;;;;1.88;1.65;;;;;;;;;;5032830;28;20049;-60
2023/06/07 02:09:45;;;;;;;3.33;2.00;;;;;;;;;;5032222;28;20046;-61
2023/06/07 02:12:11;;;;;;;2.20;2.00;;;;;;;;;;5032815;28;20026;-60
2023/06/07 02:14:37;;;;;;;2.33;2.13;;;;;;;;;;5032415;28;20037;-60
2023/06/07 02:17:09;;;;;;;2.13;1.92;;;;;;;;;;5032712;28;20018;-60
2023/06/07 02:19:35;;;;;;;2.85;1.80;;;;;;;;;;5032706;28;20036;-60
2023/06/07 02:22:01;;;;;;;2.83;2.08;;;;;;;;;;5032254;28;20028;-60
2023/06/07 02:24:27;;;;;;;2.42;1.80;;;;;;;;;;5032650;28;20029;-60
2023/06/07 02:26:55;;;;;;;2.47;1.65;;;;;;;;;;5032334;28;20033;-60
2023/06/07 02:29:22;;;;;;;3.60;1.88;;;;;;;;;;5032270;28;20029;-60
2023/06/07 02:31:52;;;;;;;3.47;2.00;;;;;;;;;;5032126;28;20063;-60
2023/06/07 02:34:19;;;;;;;3.45;1.80;;;;;;;;;;5032551;28;20047;-60
2023/06/07 02:36:46;;;;;;;1.95;1.75;;;;;;;;;;5032462;28;20431;-63
2023/06/07 02:39:11;;;;;;;3.60;1.70;;;;;;;;;;5032244;28;20025;-60
2023/06/07 02:41:37;;;;;;;4.88;2.20;;;;;;;;;;5032075;28;20040;-60
2023/06/07 02:44:02;;;;;;;4.05;2.15;;;;;;;;;;5032428;28;20072;-60
2023/06/07 02:46:28;;;;;;;1.92;1.83;;;;;;;;;;5032412;28;20033;-64
2023/06/07 02:48:53;;;;;;;1.85;1.75;;;;;;;;;;5032337;28;20103;-63
2023/06/07 02:51:19;;;;;;;3.58;2.03;;;;;;;;;;5032013;28;20420;-61
2023/06/07 02:53:45;;;;;;;2.88;1.88;;;;;;;;;;5032380;28;20033;-60
2023/06/07 02:56:12;;;;;;;2.25;1.90;;;;;;;;;;5032029;28;20028;-63
2023/06/07 02:58:37;;;;;;;2.50;1.88;;;;;;;;;;5032328;28;20033;-60
2023/06/07 03:01:07;;;;;;;2.30;1.70;;;;;;;;;;5031919;28;20032;-60
2023/06/07 03:03:37;;;;;;;2.95;1.83;;;;;;;;;;5031967;28;20033;-60
2023/06/07 03:06:04;;;;;;;3.22;2.28;;;;;;;;;;5032234;28;20443;-60
2023/06/07 03:08:31;;;;;;;1.98;1.70;;;;;;;;;;5031883;28;20029;-60
2023/06/07 03:10:57;;;;;;;1.85;1.73;;;;;;;;;;5033253;28;20033;-61
2023/06/07 03:13:23;;;;;;;1.98;1.67;;;;;;;;;;5036018;28;20032;-60
2023/06/07 03:15:48;;;;;;;1.73;1.63;;;;;;;;;;5035724;28;20025;-61
2023/06/07 03:18:17;;;;;;;1.95;1.80;;;;;;;;;;5035732;28;20036;-60
2023/06/07 03:20:43;;;;;;;3.35;2.03;;;;;;;;;;5035550;28;20472;-61
2023/06/07 03:23:09;;;;;;;2.78;1.95;;;;;;;;;;5035860;28;20052;-61
2023/06/07 03:25:35;;;;;;;3.08;1.92;;;;;;;;;;5035541;28;20029;-60
2023/06/07 03:28:01;;;;;;;2.63;1.77;;;;;;;;;;5035638;28;20033;-60
2023/06/07 03:30:27;;;;;;;2.70;1.80;;;;;;;;;;5035688;28;20029;-60
2023/06/07 03:32:52;;;;;;;3.38;1.88;;;;;;;;;;5035414;28;20438;-60
2023/06/07 03:35:18;;;;;;;3.75;1.67;;;;;;;;;;5035322;28;20029;-60
2023/06/07 03:37:44;;;;;;;3.88;1.98;;;;;;;;;;5035259;28;20032;-60
2023/06/07 03:40:10;;;;;;;2.38;1.90;;;;;;;;;;5035476;28;20028;-61
2023/06/07 03:42:36;;;;;;;2.30;2.10;;;;;;;;;;5035159;28;20022;-60
2023/06/07 03:45:02;;;;;;;1.75;1.65;;;;;;;;;;5035066;28;20032;-61
2023/06/07 03:47:28;;;;;;;2.10;1.90;;;;;;;;;;5034967;28;20037;-60
2023/06/07 03:49:53;;;;;;;1.77;1.67;;;;;;;;;;5035031;28;20065;-60
2023/06/07 03:52:19;;;;;;;1.90;1.80;;;;;;;;;;5035271;28;20021;-60
2023/06/07 03:54:44;;;;;;;3.83;1.80;;;;;;;;;;5035195;28;20401;-60
2023/06/07 03:57:10;;;;;;;2.20;1.80;;;;;;;;;;5034921;28;20053;-60
2023/06/07 03:59:36;;;;;;;2.15;1.90;;;;;;;;;;5035074;28;20064;-60
2023/06/07 04:02:03;;;;;;;2.33;1.80;;;;;;;;;;5035429;28;20035;-60
2023/06/07 04:04:29;;;;;;;1.63;1.50;;;;;;;;;;5034764;28;20021;-60
2023/06/07 04:06:54;;;;;;;3.47;2.10;;;;;;;;;;5034697;28;20156;-60
2023/06/07 04:09:20;;;;;;;2.90;1.70;;;;;;;;;;5034374;28;20054;-61
2023/06/07 04:11:46;;;;;;;1.60;1.50;;;;;;;;;;5034639;28;20049;-61
2023/06/07 04:14:12;;;;;;;4.65;1.80;;;;;;;;;;5049830;28;20116;-60
2023/06/07 04:16:37;;;;;;;2.40;1.77;;;;;;;;;;5034785;28;20362;-60
2023/06/07 04:19:03;;;;;;;2.25;1.60;;;;;;;;;;5034523;28;20363;-60
2023/06/07 04:21:29;;;;;;;2.47;1.90;;;;;;;;;;5034414;28;20120;-60
2023/06/07 04:23:54;;;;;;;1.77;1.67;;;;;;;;;;5034440;28;20033;-63
2023/06/07 04:26:21;;;;;;;3.40;2.05;;;;;;;;;;5034374;28;20116;-60
2023/06/07 04:28:50;;;;;;;1.70;1.60;;;;;;;;;;5034169;28;20061;-61
2023/06/07 04:31:22;;;;;;;1.98;1.63;;;;;;;;;;5034674;28;20418;-60
2023/06/07 04:33:48;;;;;;;4.63;1.70;;;;;;;;;;5034409;28;20033;-61
2023/06/07 04:36:14;;;;;;;2.03;1.60;;;;;;;;;;5034609;28;20026;-61
2023/06/07 04:38:39;;;;;;;1.98;1.83;;;;;;;;;;5034399;28;20018;-60
2023/06/07 04:41:06;;;;;;;1.98;1.80;;;;;;;;;;5034034;28;20229;-61
2023/06/07 04:43:35;;;;;;;1.70;1.60;;;;;;;;;;5034315;28;20548;-61
2023/06/07 04:46:01;;;;;;;2.00;1.70;;;;;;;;;;5034073;28;20029;-60
2023/06/07 04:48:27;;;;;;;1.85;1.63;;;;;;;;;;5033860;28;20124;-60
2023/06/07 04:50:54;;;;;;;1.95;1.85;;;;;;;;;;5034168;28;20100;-60
2023/06/07 04:53:20;;;;;;;1.90;1.55;;;;;;;;;;5033896;28;20083;-63
2023/06/07 04:55:50;;;;;;;1.63;1.52;;;;;;;;;;5033860;28;20069;-61
2023/06/07 04:58:16;;;;;;;;;;;;;;;;;;5034211;28;20037;-61
2023/06/07 05:00:43;;;;;;;2.00;1.80;;;;;;;;;;5033718;28;20364;-63
2023/06/07 05:03:13;;;;;;;2.28;1.90;;;;;;;;;;5033585;28;20075;-60
2023/06/07 05:05:40;;;;;;;2.42;1.85;;;;;;;;;;5033635;28;20030;-61
2023/06/07 05:08:06;;;;;;;2.55;1.58;;;;;;;;;;5033439;28;20045;-62
2023/06/07 05:10:32;;;;;;;2.22;1.83;;;;;;;;;;5033320;28;20049;-61
2023/06/07 05:12:58;;;;;;;2.30;1.70;;;;;;;;;;5033689;28;20115;-63
2023/06/07 05:15:24;;;;;;;3.95;1.65;;;;;;;;;;5033504;28;20450;-62
2023/06/07 05:17:53;;;;;;;1.73;1.63;;;;;;;;;;5033599;28;20515;-61
2023/06/07 05:20:20;;;;;;;3.30;1.60;;;;;;;;;;5033666;28;20033;-64
2023/06/07 05:22:46;;;;;;;1.95;1.80;;;;;;;;;;5033401;28;20049;-65
2023/06/07 05:25:12;;;;;;;2.10;1.70;;;;;;;;;;5033369;28;20088;-61
2023/06/07 05:27:38;;;;;;;1.90;1.70;;;;;;;;;;5031810;28;20389;-64
2023/06/07 05:30:06;;;;;;;1.88;1.63;;;;;;;;;;5033272;28;20025;-64
2023/06/07 05:32:32;;;;;;;1.67;1.55;;;;;;;;;;5033045;28;20028;-63
2023/06/07 05:34:59;;;;;;;4.60;1.80;;;;;;;;;;5032886;28;20029;-61
2023/06/07 05:37:29;;;;;;;1.85;1.52;;;;;;;;;;5032982;28;20045;-63
2023/06/07 05:39:54;;;;;;;1.60;1.50;;;;;;;;;;5033142;28;20083;-62
2023/06/07 05:42:20;;;;;;;3.67;1.60;;;;;;;;;;5032954;28;20255;-61
2023/06/07 05:44:49;;;;;;;1.85;1.63;;;;;;;;;;5033227;28;20025;-61
2023/06/07 05:47:16;;;;;;;1.60;1.50;;;;;;;;;;5031603;28;20025;-62
2023/06/07 05:49:43;;;;;;;1.77;1.67;;;;;;;;;;5032874;28;20033;-64
2023/06/07 05:52:09;;;;;;;2.22;2.00;;;;;;;;;;5033089;28;20388;-61
2023/06/07 05:54:37;;;;;;;1.80;1.70;;;;;;;;;;5032791;28;20026;-62
2023/06/07 05:57:02;;;;;;;2.03;1.70;;;;;;;;;;5032747;28;20036;-61
2023/06/07 05:59:28;;;;;;;2.00;1.85;;;;;;;;;;5032978;28;20026;-64
2023/06/07 06:01:53;;;;;;;1.80;1.70;;;;;;;;;;5032611;28;20481;-61
2023/06/07 06:04:19;;;;;;;4.22;1.60;;;;;;;;;;5032897;28;20034;-61
2023/06/07 06:06:45;;;;;;;2.60;1.67;;;;;;;;;;5032824;28;20065;-61
2023/06/07 06:09:10;;;;;;;1.70;1.60;;;;;;;;;;5032492;28;20132;-63
2023/06/07 06:11:36;;;;;;;2.03;1.83;;;;;;;;;;5032632;28;20029;-61
2023/06/07 06:14:01;;;;;;;1.90;1.70;;;;;;;;;;5032714;28;20024;-60
2023/06/07 06:16:27;;;;;;;1.83;1.73;;;;;;;;;;5032432;28;20423;-60
2023/06/07 06:18:53;;;;;;;1.77;1.67;;;;;;;;;;5032669;28;20076;-60
2023/06/07 06:21:18;;;;;;;1.70;1.60;;;;;;;;;;5031172;28;20044;-60
2023/06/07 06:23:44;;;;;;;1.60;1.50;;;;;;;;;;5032580;28;20389;-61
2023/06/07 06:26:10;;;;;;;1.65;1.50;;;;;;;;;;5031150;28;20559;-61
2023/06/07 06:28:35;;;;;;;1.45;1.35;;;;;;;;;;5032733;28;20034;-60
2023/06/07 06:31:03;;;;;;;1.70;1.60;;;;;;;;;;5032233;28;20029;-60
2023/06/07 06:33:28;;;;;;;1.77;1.67;;;;;;;;;;5032237;28;20079;-63
2023/06/07 06:35:54;;;;;;;1.63;1.52;;;;;;;;;;5032490;28;20037;-60
2023/06/07 06:38:20;;;;;;;2.03;1.83;;;;;;;;;;5032250;28;20480;-59
2023/06/07 06:40:46;;;;;;;1.95;1.60;;;;;;;;;;5032533;28;20033;-60
2023/06/07 06:43:12;;;;;;;1.73;1.55;;;;;;;;;;5032163;28;20036;-60
2023/06/07 06:45:38;;;;;;;1.88;1.70;;;;;;;;;;5033493;28;20040;-61
2023/06/07 06:48:05;;;;;;;1.70;1.60;;;;;;;;;;5036133;28;20029;-59
2023/06/07 06:50:31;;;;;;;1.88;1.67;;;;;;;;;;5036151;28;20044;-59
2023/06/07 06:52:56;;;;;;;1.70;1.60;;;;;;;;;;5036058;28;20101;-60
2023/06/07 06:55:22;;;;;;;2.35;1.90;;;;;;;;;;5036164;28;20117;-60
2023/06/07 06:57:47;;;;;;;1.60;1.50;;;;;;;;;;5036021;28;20075;-61
2023/06/07 07:00:13;;;;;;;1.67;1.55;;;;;;;;;;5036055;28;20014;-60
2023/06/07 07:02:39;;;;;;;2.10;1.75;;;;;;;;;;5035913;28;20485;-61
2023/06/07 07:05:05;;;;;;;1.70;1.60;;;;;;;;;;5035977;28;20028;-62
2023/06/07 07:07:31;;;;;;;1.60;1.50;;;;;;;;;;5035659;28;20026;-61
2023/06/07 07:09:57;;;;;;;2.03;1.83;;;;;;;;;;5034985;28;20050;-62
2023/06/07 07:12:23;;;;;;;1.75;1.63;;;;;;;;;;5034415;28;20072;-61
2023/06/07 07:14:49;;;;;;;1.80;1.70;;;;;;;;;;5034557;28;20056;-63
2023/06/07 07:17:15;;;;;;;1.80;1.70;;;;;;;;;;5034280;28;20030;-64
2023/06/07 07:19:41;;;;;;;2.03;1.70;;;;;;;;;;5034411;28;20079;-61
2023/06/07 07:22:06;;;;;;;1.40;1.30;;;;;;;;;;5034425;28;20025;-62
2023/06/07 07:24:32;;;;;;;1.75;1.65;;;;;;;;;;5034338;28;20026;-61
2023/06/07 07:26:58;;;;;;;1.60;1.50;;;;;;;;;;5034890;28;20053;-62
2023/06/07 07:29:23;;;;;;;1.60;1.50;;;;;;;;;;5032871;28;20124;-62
2023/06/07 07:31:49;;;;;;;1.70;1.60;;;;;;;;;;5034099;28;20028;-61
2023/06/07 07:34:14;;;;;;;1.88;1.77;;;;;;;;;;5034222;28;20029;-61
2023/06/07 07:36:40;;;;;;;1.50;1.40;;;;;;;;;;5033978;28;20299;-62
2023/06/07 07:39:06;;;;;;;2.15;1.60;;;;;;;;;;5034422;28;20033;-61
2023/06/07 07:41:32;;;;;;;1.52;1.42;;;;;;;;;;5034057;28;20025;-61
2023/06/07 07:43:58;;;;;;;1.40;1.30;;;;;;;;;;5033948;28;20508;-63
2023/06/07 07:46:23;;;;;;;2.00;1.80;;;;;;;;;;5033935;28;20064;-65
2023/06/07 07:48:49;;;;;;;1.70;1.60;;;;;;;;;;5033831;28;20025;-62
2023/06/07 07:51:15;;;;;;;1.63;1.52;;;;;;;;;;5033805;28;20030;-64
2023/06/07 07:53:42;;;;;;;1.60;1.50;;;;;;;;;;5033932;28;20021;-60
2023/06/07 07:56:08;;;;;;;1.58;1.48;;;;;;;;;;5033306;28;20104;-63
2023/06/07 07:58:35;;;;;;;1.83;1.70;;;;;;;;;;5032463;28;20026;-61
2023/06/07 08:01:01;;;;;;;1.73;1.58;;;;;;;;;;5033907;28;20033;-62
2023/06/07 08:03:27;;;;;;;1.88;1.77;;;;;;;;;;5033491;28;20033;-61
2023/06/07 08:05:56;;;;;;;2.05;1.58;;;;;;;;;;5033678;28;20029;-61
2023/06/07 08:08:22;;;;;;;1.67;1.58;;;;;;;;;;5033347;28;20044;-61
2023/06/07 08:10:48;;;;;;;1.83;1.73;;;;;;;;;;4983091;28;1438973;-62
2023/06/07 08:13:14;;;;;;;1.70;1.60;;;;;;;;;;5034463;28;20068;-65
2023/06/07 08:15:40;;;;;;;1.80;1.70;;;;;;;;;;5034743;28;20039;-62
2023/06/07 08:18:06;;;;;;;1.60;1.50;;;;;;;;;;5034423;28;20079;-65
2023/06/07 08:20:32;;;;;;;1.60;1.50;;;;;;;;;;5034682;28;20021;-61
2023/06/07 08:22:58;;;;;;;1.90;1.50;;;;;;;;;;5047997;28;20096;-66
2023/06/07 08:25:24;;;;;;;1.70;1.60;;;;;;;;;;5042224;28;20959;-65
2023/06/07 08:27:50;;;;;;;1.98;1.50;;;;;;;;;;5045732;28;20035;-61
2023/06/07 08:30:16;;;;;;;2.20;1.50;;;;;;;;;;5044916;28;20021;-65
2023/06/07 08:32:43;;;;;;;1.63;1.52;;;;;;;;;;5046395;28;20060;-64
2023/06/07 08:35:10;;;;;;;1.60;1.50;;;;;;;;;;5046272;28;20555;-65
2023/06/07 08:37:36;;;;;;;2.17;1.42;;;;;;;;;;5043337;28;20416;-64
2023/06/07 08:40:05;;;;;;;2.38;1.50;;;;;;;;;;5034317;28;20045;-62
2023/06/07 08:42:30;;;;;;;3.13;1.70;;;;;;;;;;5052231;28;20029;-65
2023/06/07 08:44:56;;;;;;;1.70;1.60;;;;;;;;;;5048259;28;21191;-63
2023/06/07 08:47:25;;;;;;;1.40;1.30;;;;;;;;;;5040639;28;20518;-63
2023/06/07 08:49:55;;;;;;;9.05;1.95;;;;;;;;;;5033771;28;20030;-65
2023/06/07 08:52:22;;;;;;;3.45;1.67;;;;;;;;;;5041390;28;20123;-62
2023/06/07 08:54:49;;;;;;;2.38;1.50;;;;;;;;;;5041979;28;20087;-64
2023/06/07 08:57:18;;;;;;;1.58;1.48;;;;;;;;;;5043189;28;20609;-62
2023/06/07 08:59:45;;;;;;;1.98;1.75;;;;;;;;;;5044203;28;20025;-60
2023/06/07 09:02:15;;;;;;;1.55;1.45;;;;;;;;;;5044376;28;20029;-61
2023/06/07 09:04:42;;;;;;;3.72;1.85;;;;;;;;;;5045432;28;20441;-63
2023/06/07 09:07:08;;;;;;;1.60;1.50;;;;;;;;;;5053441;28;20033;-60
2023/06/07 09:09:39;;;;;;;1.75;1.65;;;;;;;;;;5052651;28;20081;-62
2023/06/07 09:12:05;;;;;;;1.48;1.38;;;;;;;;;;5053489;28;20037;-60
2023/06/07 09:14:31;;;;;;;1.60;1.50;;;;;;;;;;5053333;28;20035;-62
2023/06/07 09:16:59;;;;;;;2.35;1.48;;;;;;;;;;5053452;28;20095;-62
2023/06/07 09:19:42;;;;;;;1.90;1.70;;;;;;;;;;5053146;28;20472;-63
2023/06/07 09:22:17;;;;;;;5.38;1.52;;;;;;;;;;5051715;28;20470;-60
2023/06/07 09:24:43;;;;;;;2.85;1.60;;;;;;;;;;5051857;28;20144;-61
2023/06/07 09:27:13;;;;;;;3.90;1.70;;;;;;;;;;5050028;28;20096;-60
2023/06/07 09:29:43;;;;;;;1.50;1.40;;;;;;;;;;5051671;28;20029;-60
2023/06/07 09:32:25;;;;;;;1.77;1.65;;;;;;;;;;5033189;28;20427;-60
2023/06/07 09:34:53;;;;;;;1.70;1.60;;;;;;;;;;5041052;28;20021;-60
2023/06/07 09:37:21;;;;;;;2.03;1.50;;;;;;;;;;5051035;28;20365;-59
2023/06/07 09:39:51;;;;;;;1.55;1.45;;;;;;;;;;5048510;28;20029;-60
2023/06/07 09:42:17;;;;;;;1.95;1.70;;;;;;;;;;5050897;28;20119;-60
2023/06/07 09:44:43;;;;;;;3.00;1.80;;;;;;;;;;5050888;28;20029;-60
2023/06/07 09:47:22;;;;;;;1.63;1.52;;;;;;;;;;5051397;28;20017;-60
2023/06/07 09:49:48;;;;;;;1.73;1.50;;;;;;;;;;5050426;28;20028;-61
2023/06/07 09:52:15;;;;;;;1.65;1.55;;;;;;;;;;5051865;28;20028;-60
2023/06/07 09:54:45;;;;;;;2.00;1.90;;;;;;;;;;5052459;28;20049;-62
2023/06/07 09:57:11;;;;;;;;;;;;;;;;;;5052928;28;20063;-60
2023/06/07 09:59:38;;;;;;;1.70;1.50;;;;;;;;;;5052647;28;19917;-61
2023/06/07 10:02:27;;;;;;;2.20;1.63;;;;;;;;;;5052907;28;20419;-60
2023/06/07 10:04:53;;;;;;;1.83;1.42;;;;;;;;;;5052570;28;20108;-60
2023/06/07 10:07:22;;;;;;;2.17;1.70;;;;;;;;;;5052399;28;20514;-60
2023/06/07 10:09:53;;;;;;;2.70;1.45;;;;;;;;;;5052160;28;20067;-60
2023/06/07 10:12:24;;;;;;;1.60;1.50;;;;;;;;;;5052433;28;20477;-59
2023/06/07 10:14:53;;;;;;;1.60;1.50;;;;;;;;;;5052377;28;20029;-60
2023/06/07 10:17:23;;;;;;;3.70;1.55;;;;;;;;;;5052404;28;20021;-60
2023/06/07 10:19:52;;;;;;;2.08;1.55;;;;;;;;;;5052662;28;20399;-60
2023/06/07 10:22:26;;;;;;;2.72;1.60;;;;;;;;;;5052592;28;20122;-59
2023/06/07 10:25:16;;;;;;;1.80;1.70;;;;;;;;;;5052364;28;20029;-60
2023/06/07 10:28:10;;;;;;;1.60;1.50;;;;;;;;;;5052381;28;20483;-61
2023/06/07 10:30:38;;;;;;;1.92;1.80;;;;;;;;;;5052166;28;20037;-61
2023/06/07 10:33:04;;;;;;;2.03;1.90;;;;;;;;;;5052455;28;20530;-60
2023/06/07 10:35:31;;;;;;;3.92;1.52;;;;;;;;;;5046199;28;20053;-61
2023/06/07 10:37:57;;;;;;;2.17;1.70;;;;;;;;;;5045994;28;20040;-62
2023/06/07 10:40:25;;;;;;;3.08;1.80;;;;;;;;;;5049061;28;20029;-60
2023/06/07 10:42:52;;;;;;;2.53;1.67;;;;;;;;;;5050870;28;20152;-61
2023/06/07 10:45:18;;;;;;;1.67;1.58;;;;;;;;;;5051173;28;20021;-61
2023/06/07 10:47:45;;;;;;;2.38;1.90;;;;;;;;;;5051754;28;20021;-60
2023/06/07 10:50:26;;;;;;;1.80;1.58;;;;;;;;;;5050029;28;20118;-60
2023/06/07 10:52:59;;;;;;;1.65;1.55;;;;;;;;;;5051255;28;20025;-60
2023/06/07 10:55:27;;;;;;;1.95;1.80;;;;;;;;;;5050976;28;20421;-61
2023/06/07 10:57:54;;;;;;;1.60;1.50;;;;;;;;;;5050859;28;20029;-61
2023/06/07 11:00:30;;;;;;;1.92;1.77;;;;;;;;;;5052487;28;20379;-61
2023/06/07 11:03:04;;;;;;;1.67;1.58;;;;;;;;;;5052008;28;20033;-61
2023/06/07 11:06:16;;;;;;;1.90;1.80;;;;;;;;;;5052194;28;20032;-60
2023/06/07 11:08:42;;;;;;;1.67;1.58;;;;;;;;;;5051870;28;20044;-60
2023/06/07 11:11:42;;;;;;;1.70;1.60;;;;;;;;;;5051436;28;20442;-61
2023/06/07 11:14:10;;;;;;;1.70;1.60;;;;;;;;;;5051669;28;20060;-61
2023/06/07 11:16:36;;;;;;;1.90;1.80;;;;;;;;;;5051839;28;20021;-61
2023/06/07 11:19:09;;;;;;;2.15;1.90;;;;;;;;;;5051971;28;20029;-61
2023/06/07 11:22:00;;;;;;;2.00;1.80;;;;;;;;;;5051668;28;20025;-61
2023/06/07 11:24:27;;;;;;;1.65;1.55;;;;;;;;;;5042367;28;20511;-61
2023/06/07 11:26:52;;;;;;;1.88;1.75;;;;;;;;;;5051766;28;20029;-60
2023/06/07 11:29:19;;;;;;;1.77;1.67;;;;;;;;;;5051482;28;20097;-61
2023/06/07 11:31:57;;;;;;;1.70;1.60;;;;;;;;;;5052898;28;20044;-60
2023/06/07 11:34:24;;;;;;;1.80;1.70;;;;;;;;;;5055367;28;20033;-62
2023/06/07 11:36:52;;;;;;;1.90;1.80;;;;;;;;;;5055257;28;20063;-60
2023/06/07 11:39:20;;;;;;;1.70;1.60;;;;;;;;;;5055544;28;20115;-60
2023/06/07 11:41:46;;;;;;;1.80;1.70;;;;;;;;;;5055524;28;20025;-60
2023/06/07 11:44:12;;;;;;;1.60;1.50;;;;;;;;;;5055079;28;20032;-60
2023/06/07 11:46:38;;;;;;;2.00;1.90;;;;;;;;;;5055053;28;20029;-60
2023/06/07 11:49:09;;;;;;;1.70;1.60;;;;;;;;;;5053703;28;20036;-60
2023/06/07 11:51:35;;;;;;;1.80;1.70;;;;;;;;;;5055087;28;20390;-60
2023/06/07 11:54:01;;;;;;;1.80;1.70;;;;;;;;;;5054862;28;20071;-61
2023/06/07 11:56:27;;;;;;;1.67;1.58;;;;;;;;;;5054946;28;20476;-60
2023/06/07 11:59:04;;;;;;;1.90;1.80;;;;;;;;;;5054831;28;20029;-61
2023/06/07 12:01:31;;;;;;;1.60;1.50;;;;;;;;;;5053658;28;20059;-60
2023/06/07 12:03:57;;;;;;;1.88;1.77;;;;;;;;;;5055104;28;20029;-60
2023/06/07 12:06:26;;;;;;;1.75;1.65;;;;;;;;;;5054765;28;20519;-62
2023/06/07 12:08:52;;;;;;;2.17;1.60;;;;;;;;;;5054703;28;20064;-61
2023/06/07 12:11:24;;;;;;;1.83;1.73;;;;;;;;;;5054917;28;20067;-61
2023/06/07 12:13:53;;;;;;;1.70;1.60;;;;;;;;;;5054580;28;20112;-60
2023/06/07 12:16:21;;;;;;;1.70;1.60;;;;;;;;;;5054585;28;20025;-61
2023/06/07 12:18:47;;;;;;;1.50;1.40;;;;;;;;;;5054590;28;20112;-60
2023/06/07 12:21:15;;;;;;;1.77;1.67;;;;;;;;;;5053254;28;20112;-60
2023/06/07 12:23:52;;;;;;;1.58;1.48;;;;;;;;;;5054516;28;20020;-61
2023/06/07 12:26:28;;;;;;;1.70;1.60;;;;;;;;;;5054584;28;20035;-62
2023/06/07 12:28:54;;;;;;;1.63;1.52;;;;;;;;;;5054556;28;20036;-60
2023/06/07 12:31:21;;;;;;;1.95;1.73;;;;;;;;;;5054519;28;20029;-60
2023/06/07 12:34:05;;;;;;;1.85;1.50;;;;;;;;;;5054280;28;20067;-60
2023/06/07 12:36:33;;;;;;;1.90;1.40;;;;;;;;;;5054188;28;20025;-61
2023/06/07 12:39:03;;;;;;;1.88;1.77;;;;;;;;;;5052809;28;20443;-60
2023/06/07 12:41:30;;;;;;;1.60;1.50;;;;;;;;;;5053994;28;20048;-61
2023/06/07 12:44:02;;;;;;;1.92;1.67;;;;;;;;;;5052827;28;20054;-60
2023/06/07 12:46:33;;;;;;;1.58;1.48;;;;;;;;;;5053543;28;20111;-60
2023/06/07 12:49:00;;;;;;;1.60;1.50;;;;;;;;;;5047122;28;20025;-60
2023/06/07 12:51:26;;;;;;;1.50;1.40;;;;;;;;;;5044503;28;20021;-61
2023/06/07 12:53:52;;;;;;;15.70;1.95;;;;;;;;;;5044191;28;20022;-60
2023/06/07 12:56:22;;;;;;;1.60;1.35;;;;;;;;;;5060209;28;20120;-60
2023/06/07 12:58:48;;;;;;;1.67;1.58;;;;;;;;;;5048976;28;20037;-60
2023/06/07 13:01:16;;;;;;;1.65;1.55;;;;;;;;;;5053749;28;20040;-60
2023/06/07 13:03:43;;;;;;;5.50;1.73;;;;;;;;;;5053802;28;20072;-59
2023/06/07 13:06:12;;;;;;;1.38;1.27;;;;;;;;;;5052547;28;20037;-60
2023/06/07 13:08:38;;;;;;;1.67;1.58;;;;;;;;;;5053646;28;20094;-60
2023/06/07 13:11:09;;;;;;;1.58;1.48;;;;;;;;;;5053156;28;20044;-60
2023/06/07 13:13:40;;;;;;;2.08;1.98;;;;;;;;;;5053676;28;20029;-59
2023/06/07 13:16:10;;;;;;;2.05;1.85;;;;;;;;;;5053266;28;20403;-60
2023/06/07 13:18:41;;;;;;;;;;;;;;;;;;5054039;28;20075;-60
2023/06/07 13:21:10;;;;;;;3.47;1.77;;;;;;;;;;5053275;28;19913;-61
2023/06/07 13:23:38;;;;;;;1.52;1.42;;;;;;;;;;5052117;28;20036;-59
2023/06/07 13:26:05;;;;;;;2.25;1.70;;;;;;;;;;5049645;28;20029;-60
2023/06/07 13:28:32;;;;;;;2.22;1.90;;;;;;;;;;5051462;28;20036;-59
2023/06/07 13:30:59;;;;;;;1.60;1.50;;;;;;;;;;5051367;28;20024;-59
2023/06/07 13:33:24;;;;;;;1.85;1.60;;;;;;;;;;5049138;28;20033;-60
2023/06/07 13:35:51;;;;;;;3.08;1.65;;;;;;;;;;5051359;28;20033;-60
2023/06/07 13:38:17;;;;;;;1.73;1.63;;;;;;;;;;5051494;28;20118;-60
2023/06/07 13:40:43;;;;;;;1.80;1.67;;;;;;;;;;5051369;28;20452;-60
2023/06/07 13:43:08;;;;;;;1.50;1.40;;;;;;;;;;5049487;28;20124;-61
2023/06/07 13:45:41;;;;;;;1.60;1.50;;;;;;;;;;5049870;28;20028;-60
2023/06/07 13:48:16;;;;;;;4.32;1.60;;;;;;;;;;5049043;28;20396;-60
2023/06/07 13:50:42;;;;;;;1.88;1.60;;;;;;;;;;5051091;28;20036;-60
2023/06/07 13:53:11;;;;;;;6.40;1.65;;;;;;;;;;5051257;28;20028;-60
2023/06/07 13:55:36;;;;;;;2.10;1.58;;;;;;;;;;5051025;28;20029;-60
2023/06/07 13:58:06;;;;;;;1.98;1.50;;;;;;;;;;5050882;28;20611;-60
2023/06/07 14:00:32;;;;;;;1.85;1.73;;;;;;;;;;5051077;28;20379;-59
2023/06/07 14:02:58;;;;;;;1.83;1.50;;;;;;;;;;5050955;28;20136;-59
2023/06/07 14:05:23;;;;;;;2.28;1.52;;;;;;;;;;5051094;28;20075;-60
2023/06/07 14:07:49;;;;;;;1.80;1.70;;;;;;;;;;5050699;28;20027;-60
2023/06/07 14:10:15;;;;;;;1.60;1.50;;;;;;;;;;5047175;28;20063;-60
2023/06/07 14:12:41;;;;;;;2.65;1.88;;;;;;;;;;5048810;28;20500;-59
2023/06/07 14:15:08;;;;;;;3.25;1.80;;;;;;;;;;5050885;28;20558;-59
2023/06/07 14:17:33;;;;;;;2.53;1.70;;;;;;;;;;5050852;28;20037;-60
2023/06/07 14:19:59;;;;;;;1.95;1.67;;;;;;;;;;5050764;28;20025;-59
2023/06/07 14:22:24;;;;;;;1.92;1.55;;;;;;;;;;5051075;28;20021;-59
2023/06/07 14:24:51;;;;;;;1.60;1.50;;;;;;;;;;5050736;28;20029;-59
2023/06/07 14:27:16;;;;;;;3.53;1.67;;;;;;;;;;5048626;28;20530;-59
2023/06/07 14:29:42;;;;;;;1.52;1.42;;;;;;;;;;5039143;28;20037;-59
2023/06/07 14:32:08;;;;;;;1.75;1.65;;;;;;;;;;5030765;28;20026;-60
2023/06/07 14:34:34;;;;;;;2.00;1.70;;;;;;;;;;5046402;28;20467;-59
2023/06/07 14:37:00;;;;;;;2.88;1.80;;;;;;;;;;5050564;28;20021;-59
2023/06/07 14:39:26;;;;;;;2.28;1.58;;;;;;;;;;5050658;28;20036;-61
2023/06/07 14:41:52;;;;;;;2.50;1.70;;;;;;;;;;5050448;28;20028;-60
2023/06/07 14:44:19;;;;;;;6.47;2.67;;;;;;;;;;5046157;28;20476;-59
2023/06/07 14:46:44;;;;;;;3.00;1.70;;;;;;;;;;5048651;28;20032;-61